sensor_id;sensor_type;location;lat;lon;timestamp;P1;durP1;ratioP1;P2;durP2;ratioP2
57605;SDS011;43430;48.204;11.556;2022-12-18T00:02:10;63.17;;;20.13;;
57605;SDS011;43430;48.204;11.556;2022-12-18T00:04:35;63.42;;;20.40;;
57605;SDS011;43430;48.204;11.556;2022-12-18T00:07:01;61.95;;;20.98;;
57605;SDS011;43430;48.204;11.556;2022-12-18T00:09:26;59.35;;;19.83;;
57605;SDS011;43430;48.204;11.556;2022-12-18T00:11:52;58.75;;;21.33;;
57605;SDS011;43430;48.204;11.556;2022-12-18T00:14:17;55.85;;;19.70;;
57605;SDS011;43430;48.204;11.556;2022-12-18T00:16:43;53.08;;;18.92;;
57605;SDS011;43430;48.204;11.556;2022-12-18T00:19:10;59.00;;;19.25;;
57605;SDS011;43430;48.204;11.556;2022-12-18T00:21:45;50.83;;;17.15;;
57605;SDS011;43430;48.204;11.556;2022-12-18T00:24:10;54.30;;;17.08;;
57605;SDS011;43430;48.204;11.556;2022-12-18T00:26:37;49.83;;;17.05;;
57605;SDS011;43430;48.204;11.556;2022-12-18T00:29:07;56.58;;;19.38;;
57605;SDS011;43430;48.204;11.556;2022-12-18T00:31:38;46.85;;;16.52;;
57605;SDS011;43430;48.204;11.556;2022-12-18T00:34:05;48.42;;;17.40;;
57605;SDS011;43430;48.204;11.556;2022-12-18T00:36:31;52.65;;;17.50;;
57605;SDS011;43430;48.204;11.556;2022-12-18T00:38:59;57.05;;;17.58;;
57605;SDS011;43430;48.204;11.556;2022-12-18T00:41:26;54.67;;;15.40;;
57605;SDS011;43430;48.204;11.556;2022-12-18T00:44:12;52.10;;;16.40;;
57605;SDS011;43430;48.204;11.556;2022-12-18T00:46:39;63.22;;;18.88;;
57605;SDS011;43430;48.204;11.556;2022-12-18T00:49:05;50.60;;;15.60;;
57605;SDS011;43430;48.204;11.556;2022-12-18T00:51:31;47.92;;;15.45;;
57605;SDS011;43430;48.204;11.556;2022-12-18T00:53:56;49.03;;;14.45;;
57605;SDS011;43430;48.204;11.556;2022-12-18T00:56:22;45.78;;;13.77;;
57605;SDS011;43430;48.204;11.556;2022-12-18T00:58:48;50.20;;;16.40;;
57605;SDS011;43430;48.204;11.556;2022-12-18T01:01:14;45.10;;;14.68;;
57605;SDS011;43430;48.204;11.556;2022-12-18T01:03:40;49.25;;;16.23;;
57605;SDS011;43430;48.204;11.556;2022-12-18T01:06:06;50.03;;;15.18;;
57605;SDS011;43430;48.204;11.556;2022-12-18T01:08:32;53.10;;;14.85;;
57605;SDS011;43430;48.204;11.556;2022-12-18T01:10:57;42.95;;;14.45;;
57605;SDS011;43430;48.204;11.556;2022-12-18T01:13:23;49.42;;;15.35;;
57605;SDS011;43430;48.204;11.556;2022-12-18T01:15:48;46.10;;;14.50;;
57605;SDS011;43430;48.204;11.556;2022-12-18T01:18:14;44.63;;;14.57;;
57605;SDS011;43430;48.204;11.556;2022-12-18T01:20:40;58.72;;;15.18;;
57605;SDS011;43430;48.204;11.556;2022-12-18T01:23:05;51.40;;;14.32;;
57605;SDS011;43430;48.204;11.556;2022-12-18T01:25:30;47.78;;;14.85;;
57605;SDS011;43430;48.204;11.556;2022-12-18T01:27:56;46.83;;;15.27;;
57605;SDS011;43430;48.204;11.556;2022-12-18T01:30:21;46.90;;;14.93;;
57605;SDS011;43430;48.204;11.556;2022-12-18T01:32:47;44.53;;;14.10;;
57605;SDS011;43430;48.204;11.556;2022-12-18T01:35:12;43.28;;;13.52;;
57605;SDS011;43430;48.204;11.556;2022-12-18T01:37:38;52.75;;;15.68;;
57605;SDS011;43430;48.204;11.556;2022-12-18T01:40:03;51.15;;;17.08;;
57605;SDS011;43430;48.204;11.556;2022-12-18T01:42:29;52.50;;;16.05;;
57605;SDS011;43430;48.204;11.556;2022-12-18T01:45:02;55.28;;;15.43;;
57605;SDS011;43430;48.204;11.556;2022-12-18T01:53:06;50.65;;;15.88;;
57605;SDS011;43430;48.204;11.556;2022-12-18T01:58:22;49.78;;;15.93;;
57605;SDS011;43430;48.204;11.556;2022-12-18T02:00:55;52.75;;;17.33;;
57605;SDS011;43430;48.204;11.556;2022-12-18T02:03:20;53.03;;;15.82;;
57605;SDS011;43430;48.204;11.556;2022-12-18T02:05:52;54.38;;;17.63;;
57605;SDS011;43430;48.204;11.556;2022-12-18T02:11:20;53.28;;;15.75;;
57605;SDS011;43430;48.204;11.556;2022-12-18T02:14:01;54.25;;;16.88;;
57605;SDS011;43430;48.204;11.556;2022-12-18T02:19:28;59.25;;;18.67;;
57605;SDS011;43430;48.204;11.556;2022-12-18T02:22:24;49.13;;;17.20;;
57605;SDS011;43430;48.204;11.556;2022-12-18T02:27:29;52.10;;;16.52;;
57605;SDS011;43430;48.204;11.556;2022-12-18T02:29:56;58.25;;;18.45;;
57605;SDS011;43430;48.204;11.556;2022-12-18T02:32:25;58.30;;;16.23;;
57605;SDS011;43430;48.204;11.556;2022-12-18T02:34:54;50.70;;;15.68;;
57605;SDS011;43430;48.204;11.556;2022-12-18T02:37:22;53.45;;;16.75;;
57605;SDS011;43430;48.204;11.556;2022-12-18T02:39:49;58.10;;;17.20;;
57605;SDS011;43430;48.204;11.556;2022-12-18T02:42:20;58.38;;;17.55;;
57605;SDS011;43430;48.204;11.556;2022-12-18T02:44:48;53.08;;;17.60;;
57605;SDS011;43430;48.204;11.556;2022-12-18T02:47:16;51.55;;;16.77;;
57605;SDS011;43430;48.204;11.556;2022-12-18T02:49:55;60.10;;;19.02;;
57605;SDS011;43430;48.204;11.556;2022-12-18T02:53:05;50.05;;;15.52;;
57605;SDS011;43430;48.204;11.556;2022-12-18T02:58:18;67.25;;;19.25;;
57605;SDS011;43430;48.204;11.556;2022-12-18T03:03:33;60.28;;;18.45;;
57605;SDS011;43430;48.204;11.556;2022-12-18T03:06:05;51.78;;;17.60;;
57605;SDS011;43430;48.204;11.556;2022-12-18T03:08:37;61.85;;;18.73;;
57605;SDS011;43430;48.204;11.556;2022-12-18T03:11:07;61.63;;;19.23;;
57605;SDS011;43430;48.204;11.556;2022-12-18T03:13:36;55.80;;;17.70;;
57605;SDS011;43430;48.204;11.556;2022-12-18T03:16:05;57.20;;;16.83;;
57605;SDS011;43430;48.204;11.556;2022-12-18T03:21:12;58.80;;;19.30;;
57605;SDS011;43430;48.204;11.556;2022-12-18T03:23:40;60.53;;;16.92;;
57605;SDS011;43430;48.204;11.556;2022-12-18T03:26:12;56.15;;;16.83;;
57605;SDS011;43430;48.204;11.556;2022-12-18T03:28:43;54.50;;;17.10;;
57605;SDS011;43430;48.204;11.556;2022-12-18T03:31:12;56.00;;;17.02;;
57605;SDS011;43430;48.204;11.556;2022-12-18T03:33:46;63.90;;;19.25;;
57605;SDS011;43430;48.204;11.556;2022-12-18T03:36:16;52.92;;;17.30;;
57605;SDS011;43430;48.204;11.556;2022-12-18T03:38:42;50.95;;;16.05;;
57605;SDS011;43430;48.204;11.556;2022-12-18T03:44:07;60.47;;;17.45;;
57605;SDS011;43430;48.204;11.556;2022-12-18T03:46:46;59.30;;;18.90;;
57605;SDS011;43430;48.204;11.556;2022-12-18T03:49:24;52.55;;;17.58;;
57605;SDS011;43430;48.204;11.556;2022-12-18T03:52:11;55.50;;;17.15;;
57605;SDS011;43430;48.204;11.556;2022-12-18T03:54:43;48.70;;;16.02;;
57605;SDS011;43430;48.204;11.556;2022-12-18T03:57:14;60.55;;;17.35;;
57605;SDS011;43430;48.204;11.556;2022-12-18T04:02:09;56.42;;;16.63;;
57605;SDS011;43430;48.204;11.556;2022-12-18T04:04:38;47.80;;;16.70;;
57605;SDS011;43430;48.204;11.556;2022-12-18T04:07:05;46.60;;;15.32;;
57605;SDS011;43430;48.204;11.556;2022-12-18T04:09:31;44.53;;;16.60;;
57605;SDS011;43430;48.204;11.556;2022-12-18T04:11:59;47.35;;;14.05;;
57605;SDS011;43430;48.204;11.556;2022-12-18T04:14:24;54.05;;;15.00;;
57605;SDS011;43430;48.204;11.556;2022-12-18T04:16:49;57.13;;;17.20;;
57605;SDS011;43430;48.204;11.556;2022-12-18T04:19:15;58.70;;;18.15;;
57605;SDS011;43430;48.204;11.556;2022-12-18T04:21:40;50.95;;;15.57;;
57605;SDS011;43430;48.204;11.556;2022-12-18T04:24:05;41.40;;;14.45;;
57605;SDS011;43430;48.204;11.556;2022-12-18T04:26:31;51.05;;;14.43;;
57605;SDS011;43430;48.204;11.556;2022-12-18T04:28:56;55.25;;;17.40;;
57605;SDS011;43430;48.204;11.556;2022-12-18T04:31:22;46.05;;;15.05;;
57605;SDS011;43430;48.204;11.556;2022-12-18T04:33:47;49.78;;;15.73;;
57605;SDS011;43430;48.204;11.556;2022-12-18T04:36:13;46.03;;;15.65;;
57605;SDS011;43430;48.204;11.556;2022-12-18T04:38:38;47.88;;;15.15;;
57605;SDS011;43430;48.204;11.556;2022-12-18T04:41:04;47.90;;;15.95;;
57605;SDS011;43430;48.204;11.556;2022-12-18T04:43:29;49.80;;;14.98;;
57605;SDS011;43430;48.204;11.556;2022-12-18T04:46:01;53.83;;;16.45;;
57605;SDS011;43430;48.204;11.556;2022-12-18T04:48:30;61.40;;;15.73;;
57605;SDS011;43430;48.204;11.556;2022-12-18T04:50:55;57.08;;;15.65;;
57605;SDS011;43430;48.204;11.556;2022-12-18T04:53:21;50.30;;;14.95;;
57605;SDS011;43430;48.204;11.556;2022-12-18T04:55:46;61.60;;;15.77;;
57605;SDS011;43430;48.204;11.556;2022-12-18T04:58:11;46.13;;;14.68;;
57605;SDS011;43430;48.204;11.556;2022-12-18T05:00:37;52.72;;;15.88;;
57605;SDS011;43430;48.204;11.556;2022-12-18T05:03:02;54.05;;;17.15;;
57605;SDS011;43430;48.204;11.556;2022-12-18T05:05:27;51.13;;;14.25;;
57605;SDS011;43430;48.204;11.556;2022-12-18T05:07:53;54.97;;;17.35;;
57605;SDS011;43430;48.204;11.556;2022-12-18T05:10:18;46.67;;;14.82;;
57605;SDS011;43430;48.204;11.556;2022-12-18T05:12:43;49.90;;;15.45;;
57605;SDS011;43430;48.204;11.556;2022-12-18T05:15:26;46.95;;;14.45;;
57605;SDS011;43430;48.204;11.556;2022-12-18T05:17:52;45.25;;;14.65;;
57605;SDS011;43430;48.204;11.556;2022-12-18T05:20:17;54.88;;;14.88;;
57605;SDS011;43430;48.204;11.556;2022-12-18T05:22:43;40.80;;;14.13;;
57605;SDS011;43430;48.204;11.556;2022-12-18T05:25:08;45.17;;;14.48;;
57605;SDS011;43430;48.204;11.556;2022-12-18T05:27:34;45.22;;;15.00;;
57605;SDS011;43430;48.204;11.556;2022-12-18T05:29:59;45.83;;;15.25;;
57605;SDS011;43430;48.204;11.556;2022-12-18T05:32:25;54.08;;;15.38;;
57605;SDS011;43430;48.204;11.556;2022-12-18T05:34:50;56.10;;;15.68;;
57605;SDS011;43430;48.204;11.556;2022-12-18T05:37:15;36.53;;;13.27;;
57605;SDS011;43430;48.204;11.556;2022-12-18T05:39:42;53.42;;;14.60;;
57605;SDS011;43430;48.204;11.556;2022-12-18T05:42:07;52.80;;;14.73;;
57605;SDS011;43430;48.204;11.556;2022-12-18T05:44:33;47.15;;;14.15;;
57605;SDS011;43430;48.204;11.556;2022-12-18T05:46:58;41.10;;;12.88;;
57605;SDS011;43430;48.204;11.556;2022-12-18T05:49:24;49.17;;;13.55;;
57605;SDS011;43430;48.204;11.556;2022-12-18T05:51:49;46.65;;;15.90;;
57605;SDS011;43430;48.204;11.556;2022-12-18T05:54:15;45.63;;;15.05;;
57605;SDS011;43430;48.204;11.556;2022-12-18T05:56:40;39.33;;;13.10;;
57605;SDS011;43430;48.204;11.556;2022-12-18T05:59:05;45.28;;;15.00;;
57605;SDS011;43430;48.204;11.556;2022-12-18T06:01:31;51.08;;;14.52;;
57605;SDS011;43430;48.204;11.556;2022-12-18T06:03:56;40.78;;;12.95;;
57605;SDS011;43430;48.204;11.556;2022-12-18T06:06:25;44.15;;;13.68;;
57605;SDS011;43430;48.204;11.556;2022-12-18T06:08:52;50.65;;;14.50;;
57605;SDS011;43430;48.204;11.556;2022-12-18T06:11:20;42.55;;;15.45;;
57605;SDS011;43430;48.204;11.556;2022-12-18T06:13:49;49.28;;;16.30;;
57605;SDS011;43430;48.204;11.556;2022-12-18T06:16:16;41.72;;;14.48;;
57605;SDS011;43430;48.204;11.556;2022-12-18T06:18:41;40.63;;;14.50;;
57605;SDS011;43430;48.204;11.556;2022-12-18T06:21:07;42.83;;;14.43;;
57605;SDS011;43430;48.204;11.556;2022-12-18T06:23:32;48.28;;;14.30;;
57605;SDS011;43430;48.204;11.556;2022-12-18T06:25:58;45.53;;;15.20;;
57605;SDS011;43430;48.204;11.556;2022-12-18T06:28:23;44.65;;;13.60;;
57605;SDS011;43430;48.204;11.556;2022-12-18T06:30:49;43.13;;;13.30;;
57605;SDS011;43430;48.204;11.556;2022-12-18T06:33:14;48.97;;;16.10;;
57605;SDS011;43430;48.204;11.556;2022-12-18T06:35:41;41.33;;;13.50;;
57605;SDS011;43430;48.204;11.556;2022-12-18T06:38:06;41.22;;;15.13;;
57605;SDS011;43430;48.204;11.556;2022-12-18T06:40:32;41.35;;;12.98;;
57605;SDS011;43430;48.204;11.556;2022-12-18T06:42:57;45.03;;;14.50;;
57605;SDS011;43430;48.204;11.556;2022-12-18T06:45:23;46.95;;;14.75;;
57605;SDS011;43430;48.204;11.556;2022-12-18T06:47:49;47.72;;;14.77;;
57605;SDS011;43430;48.204;11.556;2022-12-18T06:50:14;48.88;;;13.77;;
57605;SDS011;43430;48.204;11.556;2022-12-18T06:52:40;57.70;;;18.95;;
57605;SDS011;43430;48.204;11.556;2022-12-18T06:55:08;48.80;;;15.57;;
57605;SDS011;43430;48.204;11.556;2022-12-18T06:57:34;51.17;;;15.18;;
57605;SDS011;43430;48.204;11.556;2022-12-18T06:59:59;46.72;;;14.57;;
57605;SDS011;43430;48.204;11.556;2022-12-18T07:02:25;50.75;;;14.70;;
57605;SDS011;43430;48.204;11.556;2022-12-18T07:04:51;48.83;;;15.13;;
57605;SDS011;43430;48.204;11.556;2022-12-18T07:07:17;48.70;;;14.80;;
57605;SDS011;43430;48.204;11.556;2022-12-18T07:09:42;49.03;;;15.48;;
57605;SDS011;43430;48.204;11.556;2022-12-18T07:12:07;42.70;;;15.38;;
57605;SDS011;43430;48.204;11.556;2022-12-18T07:14:33;38.28;;;13.68;;
57605;SDS011;43430;48.204;11.556;2022-12-18T07:16:59;48.78;;;14.70;;
57605;SDS011;43430;48.204;11.556;2022-12-18T07:19:24;46.65;;;16.25;;
57605;SDS011;43430;48.204;11.556;2022-12-18T07:21:50;47.13;;;15.00;;
57605;SDS011;43430;48.204;11.556;2022-12-18T07:24:16;47.25;;;15.85;;
57605;SDS011;43430;48.204;11.556;2022-12-18T07:26:41;50.50;;;16.13;;
57605;SDS011;43430;48.204;11.556;2022-12-18T07:29:07;50.15;;;15.65;;
57605;SDS011;43430;48.204;11.556;2022-12-18T07:31:32;41.15;;;15.82;;
57605;SDS011;43430;48.204;11.556;2022-12-18T07:33:58;50.60;;;16.25;;
57605;SDS011;43430;48.204;11.556;2022-12-18T07:36:23;40.78;;;14.18;;
57605;SDS011;43430;48.204;11.556;2022-12-18T07:38:49;47.83;;;14.77;;
57605;SDS011;43430;48.204;11.556;2022-12-18T07:41:16;48.75;;;14.50;;
57605;SDS011;43430;48.204;11.556;2022-12-18T07:43:43;46.63;;;15.45;;
57605;SDS011;43430;48.204;11.556;2022-12-18T07:46:09;50.10;;;15.35;;
57605;SDS011;43430;48.204;11.556;2022-12-18T07:48:36;46.85;;;13.30;;
57605;SDS011;43430;48.204;11.556;2022-12-18T07:51:02;47.95;;;15.70;;
57605;SDS011;43430;48.204;11.556;2022-12-18T07:53:29;43.80;;;14.13;;
57605;SDS011;43430;48.204;11.556;2022-12-18T07:55:59;41.17;;;13.18;;
57605;SDS011;43430;48.204;11.556;2022-12-18T07:58:27;38.35;;;12.68;;
57605;SDS011;43430;48.204;11.556;2022-12-18T08:00:52;42.40;;;14.45;;
57605;SDS011;43430;48.204;11.556;2022-12-18T08:03:18;41.72;;;12.70;;
57605;SDS011;43430;48.204;11.556;2022-12-18T08:05:43;36.38;;;13.73;;
57605;SDS011;43430;48.204;11.556;2022-12-18T08:08:30;39.20;;;14.65;;
57605;SDS011;43430;48.204;11.556;2022-12-18T08:10:55;36.10;;;12.57;;
57605;SDS011;43430;48.204;11.556;2022-12-18T08:13:21;40.92;;;13.75;;
57605;SDS011;43430;48.204;11.556;2022-12-18T08:15:54;43.85;;;14.57;;
57605;SDS011;43430;48.204;11.556;2022-12-18T08:18:20;35.45;;;13.00;;
57605;SDS011;43430;48.204;11.556;2022-12-18T08:20:46;45.00;;;15.98;;
57605;SDS011;43430;48.204;11.556;2022-12-18T08:23:11;38.88;;;11.98;;
57605;SDS011;43430;48.204;11.556;2022-12-18T08:25:37;32.80;;;11.00;;
57605;SDS011;43430;48.204;11.556;2022-12-18T08:28:02;40.92;;;13.82;;
57605;SDS011;43430;48.204;11.556;2022-12-18T08:30:27;38.60;;;13.40;;
57605;SDS011;43430;48.204;11.556;2022-12-18T08:32:53;38.53;;;12.82;;
57605;SDS011;43430;48.204;11.556;2022-12-18T08:35:18;37.13;;;12.40;;
57605;SDS011;43430;48.204;11.556;2022-12-18T08:37:44;39.42;;;12.65;;
57605;SDS011;43430;48.204;11.556;2022-12-18T08:40:09;39.78;;;12.98;;
57605;SDS011;43430;48.204;11.556;2022-12-18T08:42:35;41.45;;;13.65;;
57605;SDS011;43430;48.204;11.556;2022-12-18T08:45:19;45.60;;;13.35;;
57605;SDS011;43430;48.204;11.556;2022-12-18T08:47:44;42.35;;;13.35;;
57605;SDS011;43430;48.204;11.556;2022-12-18T08:50:10;43.45;;;13.77;;
57605;SDS011;43430;48.204;11.556;2022-12-18T08:52:36;46.08;;;13.30;;
57605;SDS011;43430;48.204;11.556;2022-12-18T08:55:02;31.25;;;12.10;;
57605;SDS011;43430;48.204;11.556;2022-12-18T08:57:27;40.33;;;13.05;;
57605;SDS011;43430;48.204;11.556;2022-12-18T08:59:53;39.83;;;14.27;;
57605;SDS011;43430;48.204;11.556;2022-12-18T09:02:18;34.60;;;12.13;;
57605;SDS011;43430;48.204;11.556;2022-12-18T09:04:46;40.75;;;12.45;;
57605;SDS011;43430;48.204;11.556;2022-12-18T09:07:12;38.30;;;12.52;;
57605;SDS011;43430;48.204;11.556;2022-12-18T09:09:37;39.88;;;13.05;;
57605;SDS011;43430;48.204;11.556;2022-12-18T09:12:03;39.22;;;12.27;;
57605;SDS011;43430;48.204;11.556;2022-12-18T09:14:28;38.67;;;13.48;;
57605;SDS011;43430;48.204;11.556;2022-12-18T09:16:54;37.63;;;11.95;;
57605;SDS011;43430;48.204;11.556;2022-12-18T09:19:19;35.55;;;10.70;;
57605;SDS011;43430;48.204;11.556;2022-12-18T09:21:45;33.47;;;11.68;;
57605;SDS011;43430;48.204;11.556;2022-12-18T09:24:16;39.08;;;12.70;;
57605;SDS011;43430;48.204;11.556;2022-12-18T09:26:41;37.20;;;11.98;;
57605;SDS011;43430;48.204;11.556;2022-12-18T09:29:07;43.30;;;12.80;;
57605;SDS011;43430;48.204;11.556;2022-12-18T09:31:34;35.42;;;10.43;;
57605;SDS011;43430;48.204;11.556;2022-12-18T09:34:00;49.50;;;13.07;;
57605;SDS011;43430;48.204;11.556;2022-12-18T09:36:26;46.05;;;13.15;;
57605;SDS011;43430;48.204;11.556;2022-12-18T09:38:51;41.22;;;13.80;;
57605;SDS011;43430;48.204;11.556;2022-12-18T09:41:32;42.72;;;12.88;;
57605;SDS011;43430;48.204;11.556;2022-12-18T09:44:04;37.35;;;12.27;;
57605;SDS011;43430;48.204;11.556;2022-12-18T09:46:40;32.63;;;10.10;;
57605;SDS011;43430;48.204;11.556;2022-12-18T09:49:12;36.40;;;11.60;;
57605;SDS011;43430;48.204;11.556;2022-12-18T09:51:48;37.78;;;10.77;;
57605;SDS011;43430;48.204;11.556;2022-12-18T09:54:26;33.42;;;11.00;;
57605;SDS011;43430;48.204;11.556;2022-12-18T09:57:01;37.35;;;12.27;;
57605;SDS011;43430;48.204;11.556;2022-12-18T09:59:29;40.78;;;12.00;;
57605;SDS011;43430;48.204;11.556;2022-12-18T10:02:14;31.90;;;10.90;;
57605;SDS011;43430;48.204;11.556;2022-12-18T10:04:39;36.00;;;11.73;;
57605;SDS011;43430;48.204;11.556;2022-12-18T10:07:09;35.40;;;11.95;;
57605;SDS011;43430;48.204;11.556;2022-12-18T10:09:49;32.50;;;11.43;;
57605;SDS011;43430;48.204;11.556;2022-12-18T10:12:25;30.33;;;9.98;;
57605;SDS011;43430;48.204;11.556;2022-12-18T10:15:48;34.70;;;12.38;;
57605;SDS011;43430;48.204;11.556;2022-12-18T10:18:14;36.47;;;11.32;;
57605;SDS011;43430;48.204;11.556;2022-12-18T10:20:44;37.63;;;12.25;;
57605;SDS011;43430;48.204;11.556;2022-12-18T10:28:34;31.67;;;11.57;;
57605;SDS011;43430;48.204;11.556;2022-12-18T10:31:07;33.55;;;11.82;;
57605;SDS011;43430;48.204;11.556;2022-12-18T10:33:43;37.60;;;11.70;;
57605;SDS011;43430;48.204;11.556;2022-12-18T10:36:09;31.83;;;11.52;;
57605;SDS011;43430;48.204;11.556;2022-12-18T10:38:35;29.55;;;10.85;;
57605;SDS011;43430;48.204;11.556;2022-12-18T10:41:02;33.80;;;12.52;;
57605;SDS011;43430;48.204;11.556;2022-12-18T10:43:30;29.50;;;10.13;;
57605;SDS011;43430;48.204;11.556;2022-12-18T10:46:02;30.33;;;10.65;;
57605;SDS011;43430;48.204;11.556;2022-12-18T10:51:22;29.83;;;11.65;;
57605;SDS011;43430;48.204;11.556;2022-12-18T10:53:55;28.75;;;10.40;;
57605;SDS011;43430;48.204;11.556;2022-12-18T10:56:30;37.72;;;11.52;;
57605;SDS011;43430;48.204;11.556;2022-12-18T10:59:00;34.28;;;11.98;;
57605;SDS011;43430;48.204;11.556;2022-12-18T11:01:27;88.07;;;25.17;;
57605;SDS011;43430;48.204;11.556;2022-12-18T11:06:19;67.90;;;19.60;;
57605;SDS011;43430;48.204;11.556;2022-12-18T11:09:01;88.82;;;25.63;;
57605;SDS011;43430;48.204;11.556;2022-12-18T11:11:54;41.42;;;12.57;;
57605;SDS011;43430;48.204;11.556;2022-12-18T11:14:25;41.03;;;15.30;;
57605;SDS011;43430;48.204;11.556;2022-12-18T11:16:54;34.53;;;12.90;;
57605;SDS011;43430;48.204;11.556;2022-12-18T11:19:33;35.83;;;11.25;;
57605;SDS011;43430;48.204;11.556;2022-12-18T11:22:01;37.22;;;12.50;;
57605;SDS011;43430;48.204;11.556;2022-12-18T11:24:52;33.65;;;14.00;;
57605;SDS011;43430;48.204;11.556;2022-12-18T11:27:20;36.25;;;12.70;;
57605;SDS011;43430;48.204;11.556;2022-12-18T11:29:46;42.55;;;15.20;;
57605;SDS011;43430;48.204;11.556;2022-12-18T11:32:26;41.25;;;15.00;;
57605;SDS011;43430;48.204;11.556;2022-12-18T11:35:20;40.88;;;13.90;;
57605;SDS011;43430;48.204;11.556;2022-12-18T11:41:25;37.88;;;13.07;;
57605;SDS011;43430;48.204;11.556;2022-12-18T11:44:27;32.28;;;11.10;;
57605;SDS011;43430;48.204;11.556;2022-12-18T11:47:09;36.38;;;13.15;;
57605;SDS011;43430;48.204;11.556;2022-12-18T11:49:35;31.88;;;10.32;;
57605;SDS011;43430;48.204;11.556;2022-12-18T11:54:50;32.03;;;11.00;;
57605;SDS011;43430;48.204;11.556;2022-12-18T12:00:31;34.15;;;11.70;;
57605;SDS011;43430;48.204;11.556;2022-12-18T12:03:20;32.05;;;10.52;;
57605;SDS011;43430;48.204;11.556;2022-12-18T12:05:57;28.20;;;10.50;;
57605;SDS011;43430;48.204;11.556;2022-12-18T12:14:31;29.08;;;9.82;;
57605;SDS011;43430;48.204;11.556;2022-12-18T12:28:22;29.33;;;10.43;;
57605;SDS011;43430;48.204;11.556;2022-12-18T12:31:02;32.53;;;10.63;;
57605;SDS011;43430;48.204;11.556;2022-12-18T12:37:00;27.30;;;10.68;;
57605;SDS011;43430;48.204;11.556;2022-12-18T12:39:29;27.95;;;9.68;;
57605;SDS011;43430;48.204;11.556;2022-12-18T12:41:57;26.67;;;9.55;;
57605;SDS011;43430;48.204;11.556;2022-12-18T12:44:50;34.25;;;10.85;;
57605;SDS011;43430;48.204;11.556;2022-12-18T12:47:26;31.30;;;11.35;;
57605;SDS011;43430;48.204;11.556;2022-12-18T12:49:58;31.38;;;11.23;;
57605;SDS011;43430;48.204;11.556;2022-12-18T12:52:46;36.75;;;12.25;;
57605;SDS011;43430;48.204;11.556;2022-12-18T12:55:21;31.27;;;11.88;;
57605;SDS011;43430;48.204;11.556;2022-12-18T12:58:00;28.70;;;11.65;;
57605;SDS011;43430;48.204;11.556;2022-12-18T13:00:39;37.53;;;13.80;;
57605;SDS011;43430;48.204;11.556;2022-12-18T13:06:00;37.10;;;11.52;;
57605;SDS011;43430;48.204;11.556;2022-12-18T13:08:50;37.05;;;13.68;;
57605;SDS011;43430;48.204;11.556;2022-12-18T13:11:37;41.15;;;12.40;;
57605;SDS011;43430;48.204;11.556;2022-12-18T13:14:35;41.30;;;13.75;;
57605;SDS011;43430;48.204;11.556;2022-12-18T13:22:30;31.90;;;11.48;;
57605;SDS011;43430;48.204;11.556;2022-12-18T13:24:59;35.67;;;12.30;;
57605;SDS011;43430;48.204;11.556;2022-12-18T13:30:33;40.15;;;15.82;;
57605;SDS011;43430;48.204;11.556;2022-12-18T13:40:56;37.35;;;12.15;;
57605;SDS011;43430;48.204;11.556;2022-12-18T13:43:39;33.80;;;11.52;;
57605;SDS011;43430;48.204;11.556;2022-12-18T13:51:28;28.90;;;11.13;;
57605;SDS011;43430;48.204;11.556;2022-12-18T13:54:06;35.10;;;13.70;;
57605;SDS011;43430;48.204;11.556;2022-12-18T13:56:42;32.00;;;12.18;;
57605;SDS011;43430;48.204;11.556;2022-12-18T14:04:18;41.25;;;14.73;;
57605;SDS011;43430;48.204;11.556;2022-12-18T14:06:50;34.85;;;12.48;;
57605;SDS011;43430;48.204;11.556;2022-12-18T14:09:23;38.55;;;13.30;;
57605;SDS011;43430;48.204;11.556;2022-12-18T14:11:51;47.33;;;14.85;;
57605;SDS011;43430;48.204;11.556;2022-12-18T14:14:40;28.88;;;11.55;;
57605;SDS011;43430;48.204;11.556;2022-12-18T14:17:09;38.45;;;12.80;;
57605;SDS011;43430;48.204;11.556;2022-12-18T14:19:36;40.67;;;15.50;;
57605;SDS011;43430;48.204;11.556;2022-12-18T14:22:02;73.15;;;23.30;;
57605;SDS011;43430;48.204;11.556;2022-12-18T14:24:28;35.13;;;12.80;;
57605;SDS011;43430;48.204;11.556;2022-12-18T14:26:56;36.70;;;14.00;;
57605;SDS011;43430;48.204;11.556;2022-12-18T14:29:44;36.00;;;13.35;;
57605;SDS011;43430;48.204;11.556;2022-12-18T14:32:13;33.55;;;12.27;;
57605;SDS011;43430;48.204;11.556;2022-12-18T14:34:47;41.38;;;12.65;;
57605;SDS011;43430;48.204;11.556;2022-12-18T14:37:14;56.90;;;21.83;;
57605;SDS011;43430;48.204;11.556;2022-12-18T14:39:51;35.70;;;12.20;;
57605;SDS011;43430;48.204;11.556;2022-12-18T14:42:17;38.05;;;15.23;;
57605;SDS011;43430;48.204;11.556;2022-12-18T14:44:43;35.97;;;17.08;;
57605;SDS011;43430;48.204;11.556;2022-12-18T14:47:13;38.92;;;14.18;;
57605;SDS011;43430;48.204;11.556;2022-12-18T14:49:40;40.95;;;15.18;;
57605;SDS011;43430;48.204;11.556;2022-12-18T14:52:21;45.30;;;17.60;;
57605;SDS011;43430;48.204;11.556;2022-12-18T14:54:51;33.05;;;13.73;;
57605;SDS011;43430;48.204;11.556;2022-12-18T14:57:24;40.15;;;12.57;;
57605;SDS011;43430;48.204;11.556;2022-12-18T14:59:55;38.42;;;13.98;;
57605;SDS011;43430;48.204;11.556;2022-12-18T15:02:31;35.78;;;13.63;;
57605;SDS011;43430;48.204;11.556;2022-12-18T15:05:02;34.28;;;12.35;;
57605;SDS011;43430;48.204;11.556;2022-12-18T15:07:40;36.92;;;13.50;;
57605;SDS011;43430;48.204;11.556;2022-12-18T15:12:39;38.40;;;12.43;;
57605;SDS011;43430;48.204;11.556;2022-12-18T15:15:41;35.78;;;12.15;;
57605;SDS011;43430;48.204;11.556;2022-12-18T15:20:41;30.67;;;12.98;;
57605;SDS011;43430;48.204;11.556;2022-12-18T15:23:21;44.00;;;13.45;;
57605;SDS011;43430;48.204;11.556;2022-12-18T15:26:01;36.55;;;13.35;;
57605;SDS011;43430;48.204;11.556;2022-12-18T15:28:35;36.53;;;13.30;;
57605;SDS011;43430;48.204;11.556;2022-12-18T15:31:04;43.05;;;14.50;;
57605;SDS011;43430;48.204;11.556;2022-12-18T15:33:40;42.67;;;13.90;;
57605;SDS011;43430;48.204;11.556;2022-12-18T15:36:10;36.53;;;13.32;;
57605;SDS011;43430;48.204;11.556;2022-12-18T15:38:38;36.97;;;13.15;;
57605;SDS011;43430;48.204;11.556;2022-12-18T15:41:03;38.90;;;13.23;;
57605;SDS011;43430;48.204;11.556;2022-12-18T15:43:32;40.25;;;14.45;;
57605;SDS011;43430;48.204;11.556;2022-12-18T15:46:02;36.03;;;13.95;;
57605;SDS011;43430;48.204;11.556;2022-12-18T15:48:30;34.17;;;13.30;;
57605;SDS011;43430;48.204;11.556;2022-12-18T15:50:58;32.90;;;12.48;;
57605;SDS011;43430;48.204;11.556;2022-12-18T15:53:24;40.70;;;14.43;;
57605;SDS011;43430;48.204;11.556;2022-12-18T15:55:52;41.60;;;13.02;;
57605;SDS011;43430;48.204;11.556;2022-12-18T15:58:35;38.33;;;13.25;;
57605;SDS011;43430;48.204;11.556;2022-12-18T16:01:01;41.03;;;14.35;;
57605;SDS011;43430;48.204;11.556;2022-12-18T16:03:26;34.70;;;12.95;;
57605;SDS011;43430;48.204;11.556;2022-12-18T16:05:52;32.00;;;12.30;;
57605;SDS011;43430;48.204;11.556;2022-12-18T16:08:17;32.97;;;11.88;;
57605;SDS011;43430;48.204;11.556;2022-12-18T16:10:42;42.67;;;12.98;;